createdAt,value
2022-09-05T00:00:43.847Z,20.00
2022-09-05T00:03:42.406Z,19.90
2022-09-05T00:06:39.102Z,19.90
2022-09-05T00:09:59.068Z,19.90
2022-09-05T00:12:50.802Z,19.80
2022-09-05T00:16:34.026Z,19.80
2022-09-05T00:24:20.041Z,19.80
2022-09-05T00:24:27.975Z,19.80
2022-09-05T00:26:22.111Z,19.70
2022-09-05T00:29:39.648Z,19.70
2022-09-05T00:33:16.745Z,19.70
2022-09-05T00:36:25.968Z,19.70
2022-09-05T00:39:22.312Z,19.60
2022-09-05T00:42:16.557Z,19.60
2022-09-05T00:45:14.528Z,19.60
2022-09-05T00:48:26.572Z,19.60
2022-09-05T00:51:34.889Z,19.60
2022-09-05T00:54:48.141Z,19.60
2022-09-05T00:58:00.413Z,19.60
2022-09-05T01:00:55.364Z,19.60
2022-09-05T01:03:59.110Z,19.50
2022-09-05T01:07:16.296Z,19.60
2022-09-05T01:10:19.573Z,19.50
2022-09-05T01:13:24.461Z,19.50
2022-09-05T01:16:25.499Z,19.50
2022-09-05T01:19:26.933Z,19.50
2022-09-05T01:22:55.861Z,19.40
2022-09-05T01:26:04.946Z,19.40
2022-09-05T01:29:15.202Z,19.40
2022-09-05T01:32:22.120Z,19.40
2022-09-05T01:36:04.341Z,19.40
2022-09-05T01:40:12.499Z,19.30
2022-09-05T01:42:33.878Z,19.30
2022-09-05T01:45:39.274Z,19.30
2022-09-05T01:48:38.911Z,19.20
2022-09-05T01:51:42.606Z,19.20
2022-09-05T01:54:41.681Z,19.20
2022-09-05T01:57:41.438Z,19.10
2022-09-05T02:00:43.695Z,19.20
2022-09-05T02:03:42.222Z,19.10
2022-09-05T02:06:43.897Z,19.10
2022-09-05T02:10:07.046Z,19.10
2022-09-05T02:13:05.123Z,19.00
2022-09-05T02:16:05.615Z,19.00
2022-09-05T02:19:01.618Z,19.00
2022-09-05T02:22:01.355Z,18.90
2022-09-05T02:26:01.744Z,18.90
2022-09-05T02:28:18.028Z,18.90
2022-09-05T02:31:20.603Z,18.90
2022-09-05T02:34:16.844Z,18.90
2022-09-05T02:37:13.525Z,18.80
2022-09-05T02:45:07.848Z,18.80
2022-09-05T02:45:08.708Z,18.80
2022-09-05T02:46:57.209Z,18.80
2022-09-05T02:50:51.723Z,18.80
2022-09-05T02:57:33.719Z,18.70
2022-09-05T02:57:41.755Z,18.70
2022-09-05T03:00:09.099Z,18.70
2022-09-05T03:03:21.453Z,18.70
2022-09-05T03:06:32.107Z,18.70
2022-09-05T03:09:46.704Z,18.70
2022-09-05T03:13:38.707Z,18.70
2022-09-05T03:17:19.499Z,18.70
2022-09-05T03:21:15.464Z,18.70
2022-09-05T03:24:56.154Z,18.80
2022-09-05T03:28:35.842Z,18.80
2022-09-05T03:31:56.897Z,18.80
2022-09-05T03:35:30.866Z,18.80
2022-09-05T03:39:36.119Z,18.80
2022-09-05T03:43:06.402Z,18.80
2022-09-05T03:46:08.186Z,18.80
2022-09-05T03:49:58.009Z,18.80
2022-09-05T03:57:06.485Z,18.80
2022-09-05T03:57:15.203Z,18.70
2022-09-05T04:00:09.448Z,18.70
2022-09-05T04:08:09.797Z,18.70
2022-09-05T04:08:19.423Z,18.70
2022-09-05T04:09:51.439Z,18.70
2022-09-05T04:12:54.004Z,18.60
2022-09-05T04:15:53.467Z,18.60
2022-09-05T04:18:49.073Z,18.60
2022-09-05T04:21:44.946Z,18.60
2022-09-05T04:24:44.389Z,18.50
2022-09-05T04:27:47.088Z,18.50
2022-09-05T04:30:45.428Z,18.50
2022-09-05T04:33:43.274Z,18.50
2022-09-05T04:36:36.066Z,18.50
2022-09-05T04:39:28.683Z,18.50
2022-09-05T04:42:23.870Z,18.50
2022-09-05T04:45:24.369Z,18.50
2022-09-05T04:48:23.693Z,18.50
2022-09-05T04:51:45.374Z,18.60
2022-09-05T04:54:53.052Z,18.60
2022-09-05T04:57:51.924Z,18.70
2022-09-05T05:06:02.966Z,18.80
2022-09-05T05:06:20.305Z,18.80
2022-09-05T05:07:25.332Z,18.90
2022-09-05T05:11:11.545Z,19.00
2022-09-05T05:17:57.398Z,19.00
2022-09-05T05:18:13.270Z,19.10
2022-09-05T05:20:40.766Z,19.10
2022-09-05T05:23:38.209Z,19.10
2022-09-05T05:26:33.600Z,19.10
2022-09-05T05:29:26.682Z,19.10
2022-09-05T05:32:37.506Z,19.20
2022-09-05T05:35:38.496Z,19.40
2022-09-05T05:38:48.737Z,19.70
2022-09-05T05:41:43.576Z,20.10
2022-09-05T05:44:36.185Z,20.50
2022-09-05T05:47:32.778Z,21.00
2022-09-05T05:50:36.646Z,21.40
2022-09-05T05:53:43.706Z,22.00
2022-09-05T05:56:49.158Z,22.60
2022-09-05T06:00:27.656Z,23.20
2022-09-05T06:03:51.627Z,23.90
2022-09-05T06:07:02.124Z,24.70
2022-09-05T06:14:51.435Z,25.30
2022-09-05T06:15:05.148Z,26.00
2022-09-05T06:17:41.253Z,26.70
2022-09-05T06:22:08.689Z,27.40
2022-09-05T06:25:24.332Z,28.00
2022-09-05T06:28:23.961Z,28.70
2022-09-05T06:31:43.645Z,29.30
2022-09-05T06:35:16.904Z,29.80
2022-09-05T06:38:37.448Z,30.30
2022-09-05T06:41:41.758Z,30.80
2022-09-05T06:44:49.218Z,31.30
2022-09-05T06:47:43.047Z,31.80
2022-09-05T06:51:08.117Z,32.30
2022-09-05T06:54:19.806Z,32.70
2022-09-05T06:57:51.897Z,33.20
2022-09-05T07:00:48.661Z,33.50
2022-09-05T07:04:11.249Z,33.80
2022-09-05T07:07:23.074Z,34.10
2022-09-05T07:10:40.414Z,34.30
2022-09-05T07:13:38.811Z,34.40
2022-09-05T07:16:44.101Z,34.60
2022-09-05T07:19:38.562Z,34.70
2022-09-05T07:22:48.038Z,34.90
2022-09-05T07:25:43.355Z,35.10
2022-09-05T07:28:33.244Z,35.40
2022-09-05T07:31:37.470Z,35.50
2022-09-05T07:34:30.635Z,35.70
2022-09-05T07:37:23.829Z,35.80
2022-09-05T07:40:25.401Z,35.90
2022-09-05T07:43:23.481Z,36.00
2022-09-05T07:46:18.413Z,36.10
2022-09-05T07:49:12.257Z,36.30
2022-09-05T07:56:54.314Z,36.40
2022-09-05T07:56:55.976Z,36.60
2022-09-05T07:58:43.485Z,36.90
2022-09-05T08:01:39.430Z,37.20
2022-09-05T08:04:32.310Z,37.40
2022-09-05T08:07:48.855Z,37.70
2022-09-05T08:11:23.403Z,38.00
2022-09-05T08:14:23.455Z,38.30
2022-09-05T08:17:18.929Z,38.80
2022-09-05T08:20:25.735Z,39.10
2022-09-05T08:23:41.576Z,39.30
2022-09-05T08:26:38.220Z,39.60
2022-09-05T08:29:34.971Z,39.80
2022-09-05T08:32:40.437Z,40.00
2022-09-05T08:35:34.774Z,40.10
2022-09-05T08:38:24.643Z,40.20
2022-09-05T08:41:27.251Z,40.30
2022-09-05T08:46:45.924Z,40.40
2022-09-05T08:47:57.158Z,40.70
2022-09-05T08:51:13.951Z,41.10
2022-09-05T08:54:19.532Z,41.50
2022-09-05T08:57:19.203Z,41.90
2022-09-05T09:00:20.524Z,42.20
2022-09-05T09:03:25.673Z,42.50
2022-09-05T09:06:43.064Z,42.80
2022-09-05T09:09:59.725Z,43.20
2022-09-05T09:13:12.413Z,43.60
2022-09-05T09:16:11.030Z,43.90
2022-09-05T09:19:09.252Z,44.30
2022-09-05T09:22:16.348Z,44.70
2022-09-05T09:25:15.972Z,45.00
2022-09-05T09:28:50.670Z,45.10
2022-09-05T09:32:03.201Z,45.10
2022-09-05T09:35:00.091Z,45.10
2022-09-05T09:38:23.277Z,44.90
2022-09-05T09:41:52.816Z,44.70
2022-09-05T09:45:28.573Z,44.20
2022-09-05T09:49:22.532Z,43.50
2022-09-05T09:52:47.449Z,42.70
2022-09-05T09:56:38.933Z,42.10
2022-09-05T10:00:07.605Z,41.50
2022-09-05T10:10:32.804Z,41.30
2022-09-05T10:10:46.660Z,41.40
2022-09-05T10:11:55.872Z,41.30
2022-09-05T10:15:17.839Z,41.00
2022-09-05T10:18:50.719Z,40.40
2022-09-05T10:25:49.377Z,39.40
2022-09-05T10:28:51.441Z,39.20
2022-09-05T10:35:05.159Z,39.30
2022-09-05T10:35:23.530Z,39.50
2022-09-05T10:38:20.576Z,39.60
2022-09-05T10:41:21.399Z,39.50
2022-09-05T10:44:15.959Z,39.20
2022-09-05T10:47:18.765Z,38.90
2022-09-05T10:50:25.082Z,38.50
2022-09-05T10:53:39.565Z,38.10
2022-09-05T10:56:35.782Z,37.60
2022-09-05T11:02:08.127Z,37.20
2022-09-05T11:02:47.557Z,36.70
2022-09-05T11:05:40.608Z,36.20
2022-09-05T11:08:41.693Z,35.70
2022-09-05T11:11:45.927Z,35.30
2022-09-05T11:14:51.457Z,34.90
2022-09-05T11:17:46.158Z,34.50
2022-09-05T11:20:59.807Z,34.20
2022-09-05T11:23:57.620Z,33.90
2022-09-05T11:27:11.508Z,33.60
2022-09-05T11:30:06.914Z,33.30
2022-09-05T11:40:00.117Z,33.10
2022-09-05T11:40:02.933Z,32.90
2022-09-05T11:41:26.261Z,32.50
2022-09-05T11:44:35.961Z,32.30
2022-09-05T11:48:07.549Z,31.90
2022-09-05T11:51:55.081Z,31.50
2022-09-05T11:55:24.178Z,31.20
2022-09-05T11:58:45.365Z,30.90
2022-09-05T12:01:44.870Z,30.70
2022-09-05T12:05:48.701Z,30.50
2022-09-05T12:08:09.166Z,30.40
2022-09-05T12:11:11.202Z,30.20
2022-09-05T12:14:25.852Z,30.10
2022-09-05T12:17:35.341Z,30.00
2022-09-05T12:20:37.450Z,29.80
2022-09-05T12:23:58.114Z,29.70
2022-09-05T12:27:42.935Z,29.60
2022-09-05T12:30:41.748Z,29.40
2022-09-05T12:36:02.991Z,29.30
2022-09-05T12:40:54.115Z,29.10
2022-09-05T12:41:33.272Z,28.90
2022-09-05T12:43:39.387Z,28.70
2022-09-05T12:46:52.897Z,28.40
2022-09-05T12:50:02.443Z,28.20
2022-09-05T12:53:07.136Z,28.10
2022-09-05T12:56:42.969Z,28.10
2022-09-05T13:03:02.514Z,28.00
2022-09-05T13:03:07.996Z,28.10
2022-09-05T13:05:52.784Z,28.10
2022-09-05T13:08:59.098Z,28.00
2022-09-05T13:14:48.412Z,28.10
2022-09-05T13:15:18.749Z,28.20
2022-09-05T13:18:15.840Z,28.30
2022-09-05T13:21:13.356Z,28.50
2022-09-05T13:24:12.227Z,28.60
2022-09-05T13:27:13.719Z,28.60
2022-09-05T13:32:41.922Z,28.70
2022-09-05T13:37:58.027Z,28.70
2022-09-05T13:38:15.470Z,28.80
2022-09-05T13:39:58.713Z,28.80
2022-09-05T13:43:07.217Z,28.80
2022-09-05T13:46:11.847Z,28.80
2022-09-05T13:49:31.021Z,28.70
2022-09-05T13:52:29.217Z,28.70
2022-09-05T13:55:26.496Z,28.70
2022-09-05T13:58:24.236Z,28.70
2022-09-05T14:02:02.953Z,28.70
2022-09-05T14:05:24.397Z,28.70
2022-09-05T14:09:35.121Z,28.70
2022-09-05T14:12:11.687Z,28.70
2022-09-05T14:15:14.592Z,28.80
2022-09-05T14:18:21.276Z,28.80
2022-09-05T14:21:16.009Z,28.90
2022-09-05T14:24:14.443Z,28.90
2022-09-05T14:27:25.898Z,29.00
2022-09-05T14:32:32.614Z,29.10
2022-09-05T14:37:39.711Z,29.00
2022-09-05T14:37:58.395Z,28.90
2022-09-05T14:41:25.654Z,28.90
2022-09-05T14:45:08.876Z,28.90
2022-09-05T14:48:36.681Z,28.80
2022-09-05T14:51:43.194Z,28.80
2022-09-05T15:02:42.400Z,28.80
2022-09-05T15:02:54.384Z,28.70
2022-09-05T15:07:27.348Z,28.70
2022-09-05T15:12:15.505Z,28.60
2022-09-05T15:13:57.057Z,28.60
2022-09-05T15:16:59.959Z,28.50
2022-09-05T15:20:06.151Z,28.30
2022-09-05T15:22:57.683Z,28.20
2022-09-05T15:25:50.067Z,28.10
2022-09-05T15:28:43.838Z,28.00
2022-09-05T15:31:33.209Z,28.00
2022-09-05T15:34:26.901Z,27.90
2022-09-05T15:37:36.743Z,27.80
2022-09-05T15:40:26.563Z,27.80
2022-09-05T15:43:17.689Z,27.70
2022-09-05T15:46:08.816Z,27.80
2022-09-05T15:49:00.048Z,27.70
2022-09-05T15:51:53.826Z,27.70
2022-09-05T15:54:52.438Z,27.70
2022-09-05T15:57:48.628Z,27.80
2022-09-05T16:00:46.105Z,27.70
2022-09-05T16:07:23.819Z,27.70
2022-09-05T16:10:42.219Z,27.60
2022-09-05T16:10:42.607Z,27.70
2022-09-05T16:13:18.724Z,27.60
2022-09-05T16:23:12.137Z,27.50
2022-09-05T16:23:25.292Z,27.50
2022-09-05T16:23:39.409Z,27.50
2022-09-05T16:26:26.695Z,27.40
2022-09-05T16:29:26.093Z,27.40
2022-09-05T16:32:23.470Z,27.30
2022-09-05T16:35:14.637Z,27.30
2022-09-05T16:38:18.105Z,27.30
2022-09-05T16:41:24.431Z,27.20
2022-09-05T16:44:23.559Z,27.20
2022-09-05T16:47:25.889Z,27.10
2022-09-05T16:50:34.322Z,27.10
2022-09-05T16:53:33.929Z,27.00
2022-09-05T16:56:27.865Z,27.00
2022-09-05T16:59:21.297Z,26.90
2022-09-05T17:02:13.166Z,26.90
2022-09-05T17:05:15.149Z,26.80
2022-09-05T17:08:14.047Z,26.80
2022-09-05T17:11:13.863Z,26.70
2022-09-05T17:14:22.210Z,26.70
2022-09-05T17:18:04.631Z,26.60
2022-09-05T17:20:29.970Z,26.40
2022-09-05T17:26:08.293Z,26.30
2022-09-05T17:29:50.489Z,26.10
2022-09-05T17:34:41.215Z,25.90
2022-09-05T17:38:23.929Z,25.70
2022-09-05T17:41:53.632Z,25.50
2022-09-05T17:44:53.597Z,25.40
2022-09-05T17:47:49.677Z,25.30
2022-09-05T17:50:51.118Z,25.20
2022-09-05T17:54:26.369Z,25.20
2022-09-05T17:57:44.289Z,25.10
2022-09-05T18:01:05.623Z,25.00
2022-09-05T18:04:17.128Z,24.90
2022-09-05T18:07:58.610Z,24.90
2022-09-05T18:11:08.921Z,24.80
2022-09-05T18:14:25.200Z,24.70
2022-09-05T18:18:02.083Z,24.60
2022-09-05T18:21:21.635Z,24.60
2022-09-05T18:24:15.305Z,24.50
2022-09-05T18:27:44.014Z,24.50
2022-09-05T18:33:55.946Z,24.40
2022-09-05T18:36:39.261Z,24.40
2022-09-05T18:39:44.120Z,24.40
2022-09-05T18:42:37.656Z,24.30
2022-09-05T18:45:33.777Z,24.30
2022-09-05T18:48:30.774Z,24.30
2022-09-05T18:51:25.365Z,24.20
2022-09-05T18:54:25.396Z,24.20
2022-09-05T18:57:28.425Z,24.20
2022-09-05T19:00:35.108Z,24.10
2022-09-05T19:03:38.449Z,24.10
2022-09-05T19:06:36.776Z,24.00
2022-09-05T19:09:31.504Z,24.00
2022-09-05T19:12:33.423Z,23.90
2022-09-05T19:15:29.856Z,23.90
2022-09-05T19:18:26.151Z,23.80
2022-09-05T19:21:22.993Z,23.80
2022-09-05T19:24:24.749Z,23.70
2022-09-05T19:30:08.635Z,23.60
2022-09-05T19:36:51.931Z,23.40
2022-09-05T19:36:58.457Z,23.50
2022-09-05T19:37:26.103Z,23.40
2022-09-05T19:47:11.140Z,23.30
2022-09-05T19:47:38.918Z,23.20
2022-09-05T19:47:40.254Z,23.10
2022-09-05T19:50:05.714Z,23.00
2022-09-05T19:53:06.649Z,22.90
2022-09-05T19:55:56.262Z,22.90
2022-09-05T19:58:45.855Z,22.80
2022-09-05T20:01:35.394Z,22.70
2022-09-05T20:04:26.778Z,22.60
2022-09-05T20:07:18.942Z,22.60
2022-09-05T20:10:28.969Z,22.50
2022-09-05T20:13:23.744Z,22.50
2022-09-05T20:16:13.929Z,22.40
2022-09-05T20:19:06.656Z,22.40
2022-09-05T20:21:58.321Z,22.30
2022-09-05T20:24:49.248Z,22.30
2022-09-05T20:27:41.638Z,22.20
2022-09-05T20:30:36.000Z,22.20
2022-09-05T20:33:30.315Z,22.20
2022-09-05T20:43:17.662Z,22.20
2022-09-05T20:43:27.434Z,22.10
2022-09-05T20:43:32.446Z,22.20
2022-09-05T20:47:54.783Z,22.10
2022-09-05T20:54:14.764Z,22.10
2022-09-05T20:54:14.956Z,22.10
2022-09-05T20:55:44.948Z,22.00
2022-09-05T20:58:38.979Z,22.00
2022-09-05T21:01:32.525Z,22.00
2022-09-05T21:04:34.213Z,21.90
2022-09-05T21:07:27.590Z,21.90
2022-09-05T21:10:28.461Z,21.90
2022-09-05T21:13:23.120Z,21.90
2022-09-05T21:16:21.333Z,21.80
2022-09-05T21:19:24.774Z,21.80
2022-09-05T21:22:39.357Z,21.80
2022-09-05T21:25:43.953Z,21.70
2022-09-05T21:28:37.315Z,21.70
2022-09-05T21:31:30.619Z,21.70
2022-09-05T21:34:26.759Z,21.60
2022-09-05T21:37:17.586Z,21.60
2022-09-05T21:40:08.922Z,21.60
2022-09-05T21:47:37.783Z,21.50
2022-09-05T21:47:42.649Z,21.50
2022-09-05T21:49:25.849Z,21.40
2022-09-05T21:52:15.661Z,21.40
2022-09-05T21:59:13.873Z,21.30
2022-09-05T21:59:17.034Z,21.30
2022-09-05T22:01:51.015Z,21.30
2022-09-05T22:04:41.545Z,21.30
2022-09-05T22:07:35.762Z,21.20
2022-09-05T22:10:45.410Z,21.20
2022-09-05T22:13:35.905Z,21.10
2022-09-05T22:16:29.741Z,21.10
2022-09-05T22:19:37.726Z,21.10
2022-09-05T22:22:29.880Z,21.00
2022-09-05T22:25:27.735Z,21.10
2022-09-05T22:28:33.459Z,21.00
2022-09-05T22:31:23.909Z,21.00
2022-09-05T22:34:14.599Z,21.00
2022-09-05T22:37:04.092Z,21.00
2022-09-05T22:39:55.157Z,21.00
2022-09-05T22:42:44.916Z,21.00
2022-09-05T22:45:37.923Z,21.00
2022-09-05T22:48:27.449Z,21.00
2022-09-05T22:51:18.054Z,21.00
2022-09-05T22:54:07.441Z,20.90
2022-09-05T22:56:58.181Z,20.90
2022-09-05T22:59:47.813Z,20.90
2022-09-05T23:02:37.380Z,20.90
2022-09-05T23:05:27.297Z,20.90
2022-09-05T23:08:16.895Z,20.90
2022-09-05T23:11:08.891Z,20.80
2022-09-05T23:13:59.608Z,20.80
2022-09-05T23:16:49.151Z,20.80
2022-09-05T23:19:38.657Z,20.80
2022-09-05T23:22:28.236Z,20.80
2022-09-05T23:25:17.975Z,20.80
2022-09-05T23:28:10.043Z,20.80
2022-09-05T23:31:02.890Z,20.70
2022-09-05T23:33:52.417Z,20.70
2022-09-05T23:36:41.783Z,20.70
2022-09-05T23:39:31.150Z,20.70
2022-09-05T23:42:20.568Z,20.60
2022-09-05T23:45:11.365Z,20.60
2022-09-05T23:48:02.299Z,20.60
2022-09-05T23:50:52.864Z,20.50
2022-09-05T23:53:43.255Z,20.60
2022-09-05T23:56:32.608Z,20.50
2022-09-05T23:59:21.984Z,20.50
